sensor_id;sensor_type;location;lat;lon;timestamp;pressure;altitude;pressure_sealevel;temperature;humidity
21706;BME280;11014;53.076;18.208;2023-01-26T00:01:25;102189.19;;;5.52;64.41
21706;BME280;11014;53.076;18.208;2023-01-26T00:03:56;102185.19;;;5.56;64.63
21706;BME280;11014;53.076;18.208;2023-01-26T00:06:25;102179.72;;;5.57;64.48
21706;BME280;11014;53.076;18.208;2023-01-26T00:08:54;102189.69;;;5.55;64.39
21706;BME280;11014;53.076;18.208;2023-01-26T00:11:25;102182.06;;;5.60;64.33
21706;BME280;11014;53.076;18.208;2023-01-26T00:14:04;102176.09;;;5.66;64.34
21706;BME280;11014;53.076;18.208;2023-01-26T00:16:34;102170.75;;;5.66;64.09
21706;BME280;11014;53.076;18.208;2023-01-26T00:19:02;102171.78;;;5.65;64.22
21706;BME280;11014;53.076;18.208;2023-01-26T00:21:31;102167.94;;;5.68;64.13
21706;BME280;11014;53.076;18.208;2023-01-26T00:23:59;102160.94;;;5.67;64.43
21706;BME280;11014;53.076;18.208;2023-01-26T00:26:28;102155.41;;;5.68;64.25
21706;BME280;11014;53.076;18.208;2023-01-26T00:28:58;102163.59;;;5.67;64.19
21706;BME280;11014;53.076;18.208;2023-01-26T00:31:27;102161.44;;;5.70;64.43
21706;BME280;11014;53.076;18.208;2023-01-26T00:33:56;102161.94;;;5.74;64.07
21706;BME280;11014;53.076;18.208;2023-01-26T00:36:24;102164.47;;;5.75;64.06
21706;BME280;11014;53.076;18.208;2023-01-26T00:38:53;102169.47;;;5.78;64.23
21706;BME280;11014;53.076;18.208;2023-01-26T00:41:21;102166.81;;;5.78;63.87
21706;BME280;11014;53.076;18.208;2023-01-26T00:44:08;102161.47;;;5.78;63.96
21706;BME280;11014;53.076;18.208;2023-01-26T00:46:37;102157.44;;;5.74;64.20
21706;BME280;11014;53.076;18.208;2023-01-26T00:49:06;102158.78;;;5.70;64.15
21706;BME280;11014;53.076;18.208;2023-01-26T00:51:35;102151.78;;;5.69;64.54
21706;BME280;11014;53.076;18.208;2023-01-26T00:54:04;102150.78;;;5.70;64.34
21706;BME280;11014;53.076;18.208;2023-01-26T00:56:32;102149.94;;;5.70;64.34
21706;BME280;11014;53.076;18.208;2023-01-26T00:59:01;102139.81;;;5.73;64.38
21706;BME280;11014;53.076;18.208;2023-01-26T01:01:29;102145.44;;;5.70;64.69
21706;BME280;11014;53.076;18.208;2023-01-26T01:03:58;102144.75;;;5.68;64.39
21706;BME280;11014;53.076;18.208;2023-01-26T01:06:26;102143.09;;;5.67;64.81
21706;BME280;11014;53.076;18.208;2023-01-26T01:08:55;102150.59;;;5.64;64.95
21706;BME280;11014;53.076;18.208;2023-01-26T01:11:23;102144.41;;;5.63;64.78
21706;BME280;11014;53.076;18.208;2023-01-26T01:13:52;102137.44;;;5.62;64.94
21706;BME280;11014;53.076;18.208;2023-01-26T01:16:21;102130.41;;;5.61;65.07
21706;BME280;11014;53.076;18.208;2023-01-26T01:18:53;102137.56;;;5.61;64.99
21706;BME280;11014;53.076;18.208;2023-01-26T01:21:22;102132.09;;;5.62;65.35
21706;BME280;11014;53.076;18.208;2023-01-26T01:23:53;102128.75;;;5.60;65.10
21706;BME280;11014;53.076;18.208;2023-01-26T01:26:21;102120.06;;;5.58;65.36
21706;BME280;11014;53.076;18.208;2023-01-26T01:28:53;102119.09;;;5.59;65.52
21706;BME280;11014;53.076;18.208;2023-01-26T01:31:23;102117.75;;;5.63;65.23
21706;BME280;11014;53.076;18.208;2023-01-26T01:33:53;102127.78;;;5.69;65.46
21706;BME280;11014;53.076;18.208;2023-01-26T01:36:22;102122.44;;;5.69;65.27
21706;BME280;11014;53.076;18.208;2023-01-26T01:38:52;102113.47;;;5.70;65.55
21706;BME280;11014;53.076;18.208;2023-01-26T01:41:21;102114.63;;;5.68;65.59
21706;BME280;11014;53.076;18.208;2023-01-26T01:44:25;102107.81;;;5.73;65.58
21706;BME280;11014;53.076;18.208;2023-01-26T01:47:02;102107.28;;;5.70;65.50
21706;BME280;11014;53.076;18.208;2023-01-26T01:49:36;102105.25;;;5.64;65.70
21706;BME280;11014;53.076;18.208;2023-01-26T01:52:19;102094.47;;;5.65;65.73
21706;BME280;11014;53.076;18.208;2023-01-26T01:54:55;102099.78;;;5.65;65.61
21706;BME280;11014;53.076;18.208;2023-01-26T01:57:31;102097.47;;;5.70;65.81
21706;BME280;11014;53.076;18.208;2023-01-26T02:00:19;102098.78;;;5.66;65.95
21706;BME280;11014;53.076;18.208;2023-01-26T02:03:09;102090.44;;;5.61;66.10
21706;BME280;11014;53.076;18.208;2023-01-26T02:05:53;102095.09;;;5.59;66.34
21706;BME280;11014;53.076;18.208;2023-01-26T02:08:31;102091.09;;;5.63;66.37
21706;BME280;11014;53.076;18.208;2023-01-26T02:11:05;102089.13;;;5.65;66.42
21706;BME280;11014;53.076;18.208;2023-01-26T02:13:37;102088.78;;;5.68;66.34
21706;BME280;11014;53.076;18.208;2023-01-26T02:16:06;102072.78;;;5.68;66.30
21706;BME280;11014;53.076;18.208;2023-01-26T02:18:35;102086.63;;;5.72;66.23
21706;BME280;11014;53.076;18.208;2023-01-26T02:21:06;102077.13;;;5.77;66.23
21706;BME280;11014;53.076;18.208;2023-01-26T02:26:32;102071.84;;;5.93;66.00
21706;BME280;11014;53.076;18.208;2023-01-26T02:29:06;102064.69;;;5.94;65.94
21706;BME280;11014;53.076;18.208;2023-01-26T02:31:40;102067.03;;;5.97;65.98
21706;BME280;11014;53.076;18.208;2023-01-26T02:34:09;102066.19;;;5.96;65.71
21706;BME280;11014;53.076;18.208;2023-01-26T02:36:38;102066.53;;;5.93;66.10
21706;BME280;11014;53.076;18.208;2023-01-26T02:41:49;102061.53;;;5.90;66.17
21706;BME280;11014;53.076;18.208;2023-01-26T02:44:39;102053.19;;;5.85;66.01
21706;BME280;11014;53.076;18.208;2023-01-26T02:47:16;102042.00;;;5.82;66.19
21706;BME280;11014;53.076;18.208;2023-01-26T02:49:47;102036.16;;;5.78;66.49
21706;BME280;11014;53.076;18.208;2023-01-26T02:52:21;102032.84;;;5.76;66.73
21706;BME280;11014;53.076;18.208;2023-01-26T02:55:17;102041.16;;;5.73;66.41
21706;BME280;11014;53.076;18.208;2023-01-26T02:58:02;102034.66;;;5.76;66.62
21706;BME280;11014;53.076;18.208;2023-01-26T03:00:35;102031.47;;;5.80;66.63
21706;BME280;11014;53.076;18.208;2023-01-26T03:03:14;102028.19;;;5.86;66.60
21706;BME280;11014;53.076;18.208;2023-01-26T03:05:44;102023.69;;;5.87;66.52
21706;BME280;11014;53.076;18.208;2023-01-26T03:08:13;102026.16;;;5.80;66.60
21706;BME280;11014;53.076;18.208;2023-01-26T03:10:42;102029.16;;;5.77;66.94
21706;BME280;11014;53.076;18.208;2023-01-26T03:13:10;102018.66;;;5.76;66.82
21706;BME280;11014;53.076;18.208;2023-01-26T03:15:39;102017.63;;;5.77;67.24
21706;BME280;11014;53.076;18.208;2023-01-26T03:18:15;102019.97;;;5.80;67.26
21706;BME280;11014;53.076;18.208;2023-01-26T03:21:09;102012.81;;;5.80;67.19
21706;BME280;11014;53.076;18.208;2023-01-26T03:23:55;102007.81;;;5.77;67.26
21706;BME280;11014;53.076;18.208;2023-01-26T03:26:43;102006.50;;;5.81;67.07
21706;BME280;11014;53.076;18.208;2023-01-26T03:29:32;101999.84;;;5.85;67.22
21706;BME280;11014;53.076;18.208;2023-01-26T03:32:02;102006.31;;;5.83;67.16
21706;BME280;11014;53.076;18.208;2023-01-26T03:34:31;102002.81;;;5.82;67.12
21706;BME280;11014;53.076;18.208;2023-01-26T03:37:00;102006.16;;;5.84;67.08
21706;BME280;11014;53.076;18.208;2023-01-26T03:39:36;102001.84;;;5.91;67.27
21706;BME280;11014;53.076;18.208;2023-01-26T03:42:24;102003.03;;;5.97;66.91
21706;BME280;11014;53.076;18.208;2023-01-26T03:45:11;101999.00;;;6.01;66.98
21706;BME280;11014;53.076;18.208;2023-01-26T03:48:10;102000.19;;;6.07;66.91
21706;BME280;11014;53.076;18.208;2023-01-26T03:50:59;102001.84;;;6.00;66.98
21706;BME280;11014;53.076;18.208;2023-01-26T03:53:46;101996.53;;;6.00;66.92
21706;BME280;11014;53.076;18.208;2023-01-26T03:56:44;101995.34;;;6.02;66.69
21706;BME280;11014;53.076;18.208;2023-01-26T03:59:39;101984.03;;;6.08;67.15
21706;BME280;11014;53.076;18.208;2023-01-26T04:02:11;101979.53;;;6.09;66.98
21706;BME280;11014;53.076;18.208;2023-01-26T04:04:59;101981.16;;;6.10;66.75
21706;BME280;11014;53.076;18.208;2023-01-26T04:07:50;101983.19;;;6.08;66.81
21706;BME280;11014;53.076;18.208;2023-01-26T04:10:37;101982.53;;;6.06;66.77
21706;BME280;11014;53.076;18.208;2023-01-26T04:13:08;101984.34;;;6.05;66.97
21706;BME280;11014;53.076;18.208;2023-01-26T04:16:02;101973.69;;;6.05;66.87
21706;BME280;11014;53.076;18.208;2023-01-26T04:18:50;101978.19;;;6.05;66.69
21706;BME280;11014;53.076;18.208;2023-01-26T04:21:37;101969.84;;;6.08;66.74
21706;BME280;11014;53.076;18.208;2023-01-26T04:24:13;101970.03;;;6.06;66.52
21706;BME280;11014;53.076;18.208;2023-01-26T04:26:45;101971.84;;;6.06;66.78
21706;BME280;11014;53.076;18.208;2023-01-26T04:29:18;101968.84;;;6.09;66.63
21706;BME280;11014;53.076;18.208;2023-01-26T04:31:50;101967.19;;;6.08;66.68
21706;BME280;11014;53.076;18.208;2023-01-26T04:34:21;101975.69;;;6.11;66.79
21706;BME280;11014;53.076;18.208;2023-01-26T04:36:50;101968.84;;;6.17;66.59
21706;BME280;11014;53.076;18.208;2023-01-26T04:39:24;101970.84;;;6.23;66.76
21706;BME280;11014;53.076;18.208;2023-01-26T04:41:56;101970.47;;;6.26;66.58
21706;BME280;11014;53.076;18.208;2023-01-26T04:44:28;101960.50;;;6.20;66.61
21706;BME280;11014;53.076;18.208;2023-01-26T04:46:58;101964.50;;;6.16;66.33
21706;BME280;11014;53.076;18.208;2023-01-26T04:49:30;101948.81;;;6.13;66.47
21706;BME280;11014;53.076;18.208;2023-01-26T04:51:59;101948.50;;;6.16;66.42
21706;BME280;11014;53.076;18.208;2023-01-26T04:54:29;101951.16;;;6.16;66.75
21706;BME280;11014;53.076;18.208;2023-01-26T04:56:57;101944.50;;;6.20;66.70
21706;BME280;11014;53.076;18.208;2023-01-26T04:59:28;101944.63;;;6.26;66.39
21706;BME280;11014;53.076;18.208;2023-01-26T05:02:04;101940.47;;;6.24;66.37
21706;BME280;11014;53.076;18.208;2023-01-26T05:04:33;101944.50;;;6.20;66.54
21706;BME280;11014;53.076;18.208;2023-01-26T05:07:02;101939.50;;;6.17;66.38
21706;BME280;11014;53.076;18.208;2023-01-26T05:09:32;101935.16;;;6.08;66.70
21706;BME280;11014;53.076;18.208;2023-01-26T05:13:28;101940.16;;;6.19;66.51
21706;BME280;11014;53.076;18.208;2023-01-26T05:16:21;101943.78;;;6.26;66.46
21706;BME280;11014;53.076;18.208;2023-01-26T05:19:01;101941.47;;;6.31;66.08
21706;BME280;11014;53.076;18.208;2023-01-26T05:22:05;101944.91;;;6.39;65.92
21706;BME280;11014;53.076;18.208;2023-01-26T05:24:36;101949.13;;;6.42;65.61
21706;BME280;11014;53.076;18.208;2023-01-26T05:27:25;101947.44;;;6.41;65.53
21706;BME280;11014;53.076;18.208;2023-01-26T05:29:59;101941.59;;;6.37;65.87
21706;BME280;11014;53.076;18.208;2023-01-26T05:32:30;101940.09;;;6.43;66.01
21706;BME280;11014;53.076;18.208;2023-01-26T05:34:59;101936.09;;;6.47;65.71
21706;BME280;11014;53.076;18.208;2023-01-26T05:37:28;101939.75;;;6.46;65.60
21706;BME280;11014;53.076;18.208;2023-01-26T05:39:57;101942.09;;;6.41;65.66
21706;BME280;11014;53.076;18.208;2023-01-26T05:42:26;101944.91;;;6.39;65.78
21706;BME280;11014;53.076;18.208;2023-01-26T05:45:14;101938.44;;;6.42;65.77
21706;BME280;11014;53.076;18.208;2023-01-26T05:47:44;101930.09;;;6.37;65.63
21706;BME280;11014;53.076;18.208;2023-01-26T05:50:13;101934.78;;;6.27;65.83
21706;BME280;11014;53.076;18.208;2023-01-26T05:52:43;101935.78;;;6.26;65.68
21706;BME280;11014;53.076;18.208;2023-01-26T05:55:14;101931.47;;;6.25;65.60
21706;BME280;11014;53.076;18.208;2023-01-26T05:57:43;101929.28;;;6.20;65.62
21706;BME280;11014;53.076;18.208;2023-01-26T06:00:13;101937.16;;;6.22;65.56
21706;BME280;11014;53.076;18.208;2023-01-26T06:02:43;101942.16;;;6.25;65.63
21706;BME280;11014;53.076;18.208;2023-01-26T06:05:16;101928.63;;;6.18;65.87
21706;BME280;11014;53.076;18.208;2023-01-26T06:07:47;101933.16;;;6.10;65.85
21706;BME280;11014;53.076;18.208;2023-01-26T06:10:22;101933.16;;;6.10;65.99
21706;BME280;11014;53.076;18.208;2023-01-26T06:13:18;101930.16;;;6.13;65.96
21706;BME280;11014;53.076;18.208;2023-01-26T06:21:44;101926.31;;;6.07;65.77
21706;BME280;11014;53.076;18.208;2023-01-26T06:24:13;101922.50;;;5.93;65.95
21706;BME280;11014;53.076;18.208;2023-01-26T06:26:50;101929.53;;;5.86;66.12
21706;BME280;11014;53.076;18.208;2023-01-26T06:29:19;101932.53;;;5.91;66.27
21706;BME280;11014;53.076;18.208;2023-01-26T06:31:48;101941.34;;;6.00;66.17
21706;BME280;11014;53.076;18.208;2023-01-26T06:34:21;101927.81;;;6.10;66.13
21706;BME280;11014;53.076;18.208;2023-01-26T06:36:49;101935.00;;;6.17;65.93
21706;BME280;11014;53.076;18.208;2023-01-26T06:39:27;101936.50;;;6.12;66.00
21706;BME280;11014;53.076;18.208;2023-01-26T06:41:58;101940.16;;;6.11;65.89
21706;BME280;11014;53.076;18.208;2023-01-26T06:44:27;101935.50;;;6.05;66.09
21706;BME280;11014;53.076;18.208;2023-01-26T06:46:56;101934.53;;;5.97;66.03
21706;BME280;11014;53.076;18.208;2023-01-26T06:49:29;101939.53;;;6.01;66.07
21706;BME280;11014;53.076;18.208;2023-01-26T06:52:29;101935.00;;;6.01;66.00
21706;BME280;11014;53.076;18.208;2023-01-26T06:55:29;101942.66;;;5.96;65.96
21706;BME280;11014;53.076;18.208;2023-01-26T06:58:14;101943.84;;;5.85;66.07
21706;BME280;11014;53.076;18.208;2023-01-26T07:01:01;101949.34;;;5.92;66.42
21706;BME280;11014;53.076;18.208;2023-01-26T07:03:35;101955.19;;;6.04;66.00
21706;BME280;11014;53.076;18.208;2023-01-26T07:06:06;101958.19;;;6.09;66.10
21706;BME280;11014;53.076;18.208;2023-01-26T07:08:38;101960.66;;;6.10;65.93
21706;BME280;11014;53.076;18.208;2023-01-26T07:11:13;101959.16;;;6.16;65.78
21706;BME280;11014;53.076;18.208;2023-01-26T07:13:47;101955.97;;;6.20;65.79
21706;BME280;11014;53.076;18.208;2023-01-26T07:16:28;101952.81;;;6.25;65.93
21706;BME280;11014;53.076;18.208;2023-01-26T07:19:04;101953.50;;;6.19;65.83
21706;BME280;11014;53.076;18.208;2023-01-26T07:21:39;101955.16;;;6.20;65.67
21706;BME280;11014;53.076;18.208;2023-01-26T07:24:16;101957.63;;;6.29;65.95
21706;BME280;11014;53.076;18.208;2023-01-26T07:26:57;101957.94;;;6.34;65.64
21706;BME280;11014;53.076;18.208;2023-01-26T07:29:28;101951.63;;;6.27;65.51
21706;BME280;11014;53.076;18.208;2023-01-26T07:31:56;101945.47;;;6.27;65.71
21706;BME280;11014;53.076;18.208;2023-01-26T07:34:29;101948.44;;;6.32;65.73
21706;BME280;11014;53.076;18.208;2023-01-26T07:36:57;101951.63;;;6.35;65.75
21706;BME280;11014;53.076;18.208;2023-01-26T07:39:26;101945.75;;;6.40;65.47
21706;BME280;11014;53.076;18.208;2023-01-26T07:41:58;101939.41;;;6.49;65.61
21706;BME280;11014;53.076;18.208;2023-01-26T07:48:01;101938.06;;;6.45;65.27
21706;BME280;11014;53.076;18.208;2023-01-26T07:50:40;101941.59;;;6.37;65.44
21706;BME280;11014;53.076;18.208;2023-01-26T07:53:18;101953.13;;;6.38;65.21
21706;BME280;11014;53.076;18.208;2023-01-26T07:56:27;101934.41;;;6.46;65.26
21706;BME280;11014;53.076;18.208;2023-01-26T07:59:14;101933.28;;;6.32;65.40
21706;BME280;11014;53.076;18.208;2023-01-26T08:02:13;101933.28;;;6.32;65.47
21706;BME280;11014;53.076;18.208;2023-01-26T08:04:45;101937.31;;;6.28;65.46
21706;BME280;11014;53.076;18.208;2023-01-26T08:07:31;101933.94;;;6.26;65.56
21706;BME280;11014;53.076;18.208;2023-01-26T08:10:00;101932.09;;;6.35;65.24
21706;BME280;11014;53.076;18.208;2023-01-26T08:12:30;101931.09;;;6.36;65.18
21706;BME280;11014;53.076;18.208;2023-01-26T08:15:44;101921.44;;;6.35;65.27
21706;BME280;11014;53.076;18.208;2023-01-26T08:18:59;101927.25;;;6.38;65.28
21706;BME280;11014;53.076;18.208;2023-01-26T08:21:34;101931.09;;;6.44;64.99
21706;BME280;11014;53.076;18.208;2023-01-26T08:24:02;101936.09;;;6.47;65.33
21706;BME280;11014;53.076;18.208;2023-01-26T08:26:38;101929.22;;;6.52;65.15
21706;BME280;11014;53.076;18.208;2023-01-26T08:29:14;101927.03;;;6.56;65.14
21706;BME280;11014;53.076;18.208;2023-01-26T08:31:42;101917.72;;;6.52;65.20
21706;BME280;11014;53.076;18.208;2023-01-26T08:34:12;101922.56;;;6.48;65.32
21706;BME280;11014;53.076;18.208;2023-01-26T08:36:49;101920.91;;;6.47;65.35
21706;BME280;11014;53.076;18.208;2023-01-26T08:39:20;101928.22;;;6.45;65.43
21706;BME280;11014;53.076;18.208;2023-01-26T08:41:54;101923.38;;;6.49;65.35
21706;BME280;11014;53.076;18.208;2023-01-26T08:44:23;101920.13;;;6.70;65.27
21706;BME280;11014;53.076;18.208;2023-01-26T08:46:52;101925.69;;;6.60;64.84
21706;BME280;11014;53.076;18.208;2023-01-26T08:49:35;101933.84;;;6.58;65.33
21706;BME280;11014;53.076;18.208;2023-01-26T08:52:07;101934.22;;;6.55;65.09
21706;BME280;11014;53.076;18.208;2023-01-26T08:54:52;101944.91;;;6.55;65.14
21706;BME280;11014;53.076;18.208;2023-01-26T08:57:24;101943.03;;;6.56;65.26
21706;BME280;11014;53.076;18.208;2023-01-26T08:59:53;101940.22;;;6.57;65.25
21706;BME280;11014;53.076;18.208;2023-01-26T09:02:22;101940.72;;;6.61;65.39
21706;BME280;11014;53.076;18.208;2023-01-26T09:04:59;101939.34;;;6.65;65.51
21706;BME280;11014;53.076;18.208;2023-01-26T09:07:44;101944.34;;;6.68;65.20
21706;BME280;11014;53.076;18.208;2023-01-26T09:10:17;101941.97;;;6.73;65.29
21706;BME280;11014;53.076;18.208;2023-01-26T09:12:51;101945.66;;;6.72;65.17
21706;BME280;11014;53.076;18.208;2023-01-26T09:15:20;101944.00;;;6.71;64.96
21706;BME280;11014;53.076;18.208;2023-01-26T09:17:49;101933.66;;;6.68;65.16
21706;BME280;11014;53.076;18.208;2023-01-26T09:20:21;101934.50;;;6.69;65.27
21706;BME280;11014;53.076;18.208;2023-01-26T09:22:54;101934.97;;;6.72;65.34
21706;BME280;11014;53.076;18.208;2023-01-26T09:25:22;101945.66;;;6.72;65.22
21706;BME280;11014;53.076;18.208;2023-01-26T09:27:53;101942.31;;;6.70;65.19
21706;BME280;11014;53.076;18.208;2023-01-26T09:30:25;101942.66;;;6.67;65.27
21706;BME280;11014;53.076;18.208;2023-01-26T09:33:03;101936.50;;;6.67;65.40
21706;BME280;11014;53.076;18.208;2023-01-26T09:35:34;101933.16;;;6.65;65.27
21706;BME280;11014;53.076;18.208;2023-01-26T09:38:05;101927.81;;;6.65;65.25
21706;BME280;11014;53.076;18.208;2023-01-26T09:43:46;101916.97;;;6.74;65.09
21706;BME280;11014;53.076;18.208;2023-01-26T09:47:01;101908.25;;;6.72;65.04
21706;BME280;11014;53.076;18.208;2023-01-26T09:50:12;101908.16;;;6.66;65.18
21706;BME280;11014;53.076;18.208;2023-01-26T09:53:02;101901.78;;;6.67;65.27
21706;BME280;11014;53.076;18.208;2023-01-26T09:55:38;101899.69;;;6.54;65.05
21706;BME280;11014;53.076;18.208;2023-01-26T09:58:27;101908.31;;;6.64;65.63
21706;BME280;11014;53.076;18.208;2023-01-26T10:01:00;101895.28;;;6.69;65.30
21706;BME280;11014;53.076;18.208;2023-01-26T10:03:40;101893.91;;;6.73;65.45
21706;BME280;11014;53.076;18.208;2023-01-26T10:06:26;101884.03;;;6.82;65.22
21706;BME280;11014;53.076;18.208;2023-01-26T10:09:27;101884.69;;;6.84;65.13
21706;BME280;11014;53.076;18.208;2023-01-26T10:12:26;101890.16;;;6.90;65.05
21706;BME280;11014;53.076;18.208;2023-01-26T10:15:30;101886.84;;;6.88;64.65
21706;BME280;11014;53.076;18.208;2023-01-26T10:18:21;101884.81;;;6.90;64.81
21706;BME280;11014;53.076;18.208;2023-01-26T10:20:53;101888.78;;;6.94;64.77
21706;BME280;11014;53.076;18.208;2023-01-26T10:23:32;101881.44;;;6.96;64.32
21706;BME280;11014;53.076;18.208;2023-01-26T10:26:36;101883.50;;;6.86;64.11
21706;BME280;11014;53.076;18.208;2023-01-26T10:29:31;101870.06;;;6.72;64.27
21706;BME280;11014;53.076;18.208;2023-01-26T10:31:59;101873.25;;;6.67;64.50
21706;BME280;11014;53.076;18.208;2023-01-26T10:34:31;101864.41;;;6.67;64.39
21706;BME280;11014;53.076;18.208;2023-01-26T10:37:23;101869.38;;;6.70;64.28
21706;BME280;11014;53.076;18.208;2023-01-26T10:40:04;101865.19;;;6.75;64.23
21706;BME280;11014;53.076;18.208;2023-01-26T10:42:57;101871.38;;;6.76;63.99
21706;BME280;11014;53.076;18.208;2023-01-26T10:45:46;101863.53;;;6.74;64.33
21706;BME280;11014;53.076;18.208;2023-01-26T10:48:40;101862.31;;;6.85;63.91
21706;BME280;11014;53.076;18.208;2023-01-26T10:54:31;101869.63;;;6.91;63.44
21706;BME280;11014;53.076;18.208;2023-01-26T10:57:27;101868.94;;;6.89;63.52
21706;BME280;11014;53.076;18.208;2023-01-26T10:59:58;101862.44;;;6.91;63.74
21706;BME280;11014;53.076;18.208;2023-01-26T11:02:30;101867.06;;;6.97;63.70
21706;BME280;11014;53.076;18.208;2023-01-26T11:07:43;101852.78;;;6.90;63.26
21706;BME280;11014;53.076;18.208;2023-01-26T11:13:36;101846.72;;;6.96;63.36
21706;BME280;11014;53.076;18.208;2023-01-26T11:16:22;101839.84;;;7.02;63.29
21706;BME280;11014;53.076;18.208;2023-01-26T11:19:11;101853.84;;;7.04;63.30
21706;BME280;11014;53.076;18.208;2023-01-26T11:32:29;101837.84;;;7.18;62.57
21706;BME280;11014;53.076;18.208;2023-01-26T11:38:37;101836.25;;;6.87;62.83
21706;BME280;11014;53.076;18.208;2023-01-26T11:47:33;101836.19;;;6.95;62.66
21706;BME280;11014;53.076;18.208;2023-01-26T11:53:34;101819.78;;;6.75;63.02
21706;BME280;11014;53.076;18.208;2023-01-26T11:59:37;101812.97;;;6.73;63.25
21706;BME280;11014;53.076;18.208;2023-01-26T12:02:24;101811.50;;;6.70;63.33
21706;BME280;11014;53.076;18.208;2023-01-26T12:05:00;101803.66;;;6.69;63.01
21706;BME280;11014;53.076;18.208;2023-01-26T12:11:14;101804.00;;;6.66;63.26
21706;BME280;11014;53.076;18.208;2023-01-26T12:26:20;101788.09;;;6.72;63.07
21706;BME280;11014;53.076;18.208;2023-01-26T12:33:12;101780.22;;;6.79;62.86
21706;BME280;11014;53.076;18.208;2023-01-26T12:35:45;101775.88;;;6.55;63.21
21706;BME280;11014;53.076;18.208;2023-01-26T12:47:15;101785.47;;;6.64;63.51
21706;BME280;11014;53.076;18.208;2023-01-26T12:50:15;101785.81;;;6.69;63.83
21706;BME280;11014;53.076;18.208;2023-01-26T12:53:00;101780.47;;;6.69;63.66
21706;BME280;11014;53.076;18.208;2023-01-26T12:58:18;101775.19;;;6.84;63.65
21706;BME280;11014;53.076;18.208;2023-01-26T13:01:36;101770.47;;;6.86;63.46
21706;BME280;11014;53.076;18.208;2023-01-26T13:04:03;101779.63;;;6.91;63.75
21706;BME280;11014;53.076;18.208;2023-01-26T13:06:37;101775.88;;;7.00;63.61
21706;BME280;11014;53.076;18.208;2023-01-26T13:11:46;101785.94;;;6.98;63.39
21706;BME280;11014;53.076;18.208;2023-01-26T13:22:38;101782.19;;;7.07;62.88
21706;BME280;11014;53.076;18.208;2023-01-26T13:25:17;101780.81;;;7.11;62.90
21706;BME280;11014;53.076;18.208;2023-01-26T13:31:32;101774.06;;;7.01;62.54
21706;BME280;11014;53.076;18.208;2023-01-26T13:34:07;101781.78;;;6.96;62.41
21706;BME280;11014;53.076;18.208;2023-01-26T13:36:38;101773.13;;;6.94;62.69
21706;BME280;11014;53.076;18.208;2023-01-26T13:39:31;101773.94;;;6.94;62.88
21706;BME280;11014;53.076;18.208;2023-01-26T13:42:28;101766.09;;;6.93;62.82
21706;BME280;11014;53.076;18.208;2023-01-26T13:45:05;101762.78;;;6.91;62.86
21706;BME280;11014;53.076;18.208;2023-01-26T13:48:03;101761.31;;;6.88;62.67
21706;BME280;11014;53.076;18.208;2023-01-26T13:51:04;101760.63;;;6.86;62.75
21706;BME280;11014;53.076;18.208;2023-01-26T13:54:06;101752.16;;;6.83;62.92
21706;BME280;11014;53.076;18.208;2023-01-26T13:56:43;101760.28;;;6.67;63.08
21706;BME280;11014;53.076;18.208;2023-01-26T13:59:32;101760.66;;;6.64;63.20
21706;BME280;11014;53.076;18.208;2023-01-26T14:02:01;101754.81;;;6.60;63.24
21706;BME280;11014;53.076;18.208;2023-01-26T14:04:31;101750.69;;;6.57;63.25
21706;BME280;11014;53.076;18.208;2023-01-26T14:07:32;101764.81;;;6.66;63.59
21706;BME280;11014;53.076;18.208;2023-01-26T14:10:03;101761.09;;;6.67;63.02
21706;BME280;11014;53.076;18.208;2023-01-26T14:12:43;101756.13;;;6.64;63.09
21706;BME280;11014;53.076;18.208;2023-01-26T14:16:34;101758.78;;;6.64;63.00
21706;BME280;11014;53.076;18.208;2023-01-26T14:19:20;101761.69;;;6.54;63.05
21706;BME280;11014;53.076;18.208;2023-01-26T14:21:59;101757.06;;;6.48;63.44
21706;BME280;11014;53.076;18.208;2023-01-26T14:24:59;101757.34;;;6.53;63.50
21706;BME280;11014;53.076;18.208;2023-01-26T14:27:35;101765.84;;;6.57;63.25
21706;BME280;11014;53.076;18.208;2023-01-26T14:30:40;101763.81;;;6.59;63.41
21706;BME280;11014;53.076;18.208;2023-01-26T14:33:14;101771.00;;;6.58;63.33
21706;BME280;11014;53.076;18.208;2023-01-26T14:35:55;101764.50;;;6.61;63.67
21706;BME280;11014;53.076;18.208;2023-01-26T14:38:55;101762.47;;;6.63;63.41
21706;BME280;11014;53.076;18.208;2023-01-26T14:42:36;101756.44;;;6.69;63.35
21706;BME280;11014;53.076;18.208;2023-01-26T14:45:28;101765.59;;;6.67;63.50
21706;BME280;11014;53.076;18.208;2023-01-26T14:52:48;101766.34;;;6.61;63.30
21706;BME280;11014;53.076;18.208;2023-01-26T14:56:48;101764.91;;;6.50;63.23
21706;BME280;11014;53.076;18.208;2023-01-26T14:59:22;101767.25;;;6.45;63.75
21706;BME280;11014;53.076;18.208;2023-01-26T15:04:56;101770.31;;;6.34;64.18
21706;BME280;11014;53.076;18.208;2023-01-26T15:07:36;101764.47;;;6.38;64.15
21706;BME280;11014;53.076;18.208;2023-01-26T15:15:58;101772.44;;;6.46;63.99
21706;BME280;11014;53.076;18.208;2023-01-26T15:18:31;101766.56;;;6.51;63.72
21706;BME280;11014;53.076;18.208;2023-01-26T15:21:14;101759.19;;;6.53;63.58
21706;BME280;11014;53.076;18.208;2023-01-26T15:23:53;101762.53;;;6.55;63.73
21706;BME280;11014;53.076;18.208;2023-01-26T15:28:57;101767.69;;;6.56;63.36
21706;BME280;11014;53.076;18.208;2023-01-26T15:31:33;101768.25;;;6.75;63.29
21706;BME280;11014;53.076;18.208;2023-01-26T15:34:37;101771.34;;;6.64;62.99
21706;BME280;11014;53.076;18.208;2023-01-26T15:37:31;101770.00;;;6.60;63.48
21706;BME280;11014;53.076;18.208;2023-01-26T15:40:01;101770.53;;;6.55;63.52
21706;BME280;11014;53.076;18.208;2023-01-26T15:42:34;101767.88;;;6.55;63.44
21706;BME280;11014;53.076;18.208;2023-01-26T15:45:25;101766.78;;;6.64;63.41
21706;BME280;11014;53.076;18.208;2023-01-26T15:51:16;101765.44;;;6.68;63.34